createdAt,value
2023-10-22T00:02:01.853Z,62.80
2023-10-22T00:07:07.031Z,62.53
2023-10-22T00:12:11.988Z,62.38
2023-10-22T00:17:15.159Z,61.55
2023-10-22T00:22:20.437Z,62.27
2023-10-22T00:27:23.992Z,62.42
2023-10-22T00:32:27.425Z,61.72
2023-10-22T00:37:32.794Z,62.01
2023-10-22T00:42:36.461Z,61.74
2023-10-22T00:47:40.200Z,62.02
2023-10-22T00:52:45.131Z,62.97
2023-10-22T00:57:49.542Z,63.21
2023-10-22T01:02:53.305Z,62.99
2023-10-22T01:07:59.187Z,62.40
2023-10-22T01:13:02.677Z,62.46
2023-10-22T01:18:06.604Z,62.01
2023-10-22T01:23:13.518Z,61.79
2023-10-22T01:28:17.143Z,61.77
2023-10-22T01:33:20.797Z,62.19
2023-10-22T01:38:25.844Z,61.49
2023-10-22T01:43:29.584Z,62.37
2023-10-22T01:48:33.419Z,62.38
2023-10-22T01:53:38.578Z,62.17
2023-10-22T01:58:41.974Z,63.17
2023-10-22T02:03:48.050Z,63.44
2023-10-22T02:08:53.214Z,62.80
2023-10-22T02:13:57.058Z,62.99
2023-10-22T02:19:00.652Z,62.85
2023-10-22T02:24:25.420Z,62.78
2023-10-22T02:29:28.740Z,62.49
2023-10-22T02:34:32.258Z,62.40
2023-10-22T02:39:37.130Z,62.91
2023-10-22T02:44:41.234Z,62.07
2023-10-22T02:49:44.884Z,62.80
2023-10-22T02:54:50.417Z,63.09
2023-10-22T02:59:53.978Z,63.57
2023-10-22T03:04:58.383Z,62.97
2023-10-22T03:10:04.667Z,63.55
2023-10-22T03:15:09.836Z,64.14
2023-10-22T03:20:13.990Z,64.11
2023-10-22T03:25:20.028Z,63.37
2023-10-22T03:30:23.706Z,63.65
2023-10-22T03:35:28.430Z,62.96
2023-10-22T03:40:35.887Z,63.10
2023-10-22T03:45:39.584Z,63.38
2023-10-22T03:50:46.114Z,62.98
2023-10-22T03:55:51.729Z,62.64
2023-10-22T04:00:57.240Z,62.85
2023-10-22T04:06:00.895Z,63.42
2023-10-22T04:11:06.206Z,62.75
2023-10-22T04:16:16.815Z,62.44
2023-10-22T04:21:20.482Z,62.84
2023-10-22T04:26:25.552Z,62.03
2023-10-22T04:31:29.196Z,61.68
2023-10-22T04:36:33.668Z,62.24
2023-10-22T04:41:38.810Z,62.80
2023-10-22T04:46:42.444Z,62.40
2023-10-22T04:51:46.443Z,62.21
2023-10-22T04:56:51.343Z,62.70
2023-10-22T05:01:55.811Z,62.47
2023-10-22T05:06:59.481Z,62.91
2023-10-22T05:12:04.586Z,62.69
2023-10-22T05:17:08.322Z,62.94
2023-10-22T05:22:11.817Z,62.94
2023-10-22T05:27:17.337Z,62.39
2023-10-22T05:32:20.979Z,61.60
2023-10-22T05:37:25.263Z,61.58
2023-10-22T05:42:30.284Z,62.61
2023-10-22T05:47:34.238Z,63.03
2023-10-22T05:52:37.701Z,63.17
2023-10-22T05:57:42.496Z,63.38
2023-10-22T06:02:45.994Z,63.75
2023-10-22T06:07:50.008Z,63.36
2023-10-22T06:12:55.221Z,62.99
2023-10-22T06:17:58.990Z,62.34
2023-10-22T06:23:02.748Z,63.13
2023-10-22T06:28:08.005Z,63.82
2023-10-22T06:33:11.759Z,63.70
2023-10-22T06:38:15.367Z,63.43
2023-10-22T06:43:20.543Z,63.48
2023-10-22T06:48:24.482Z,64.11
2023-10-22T06:53:27.938Z,64.01
2023-10-22T06:58:33.621Z,63.80
2023-10-22T07:03:37.301Z,64.25
2023-10-22T07:08:41.514Z,64.31
2023-10-22T07:13:46.712Z,64.61
2023-10-22T07:18:50.561Z,64.53
2023-10-22T07:23:55.742Z,64.94
2023-10-22T07:29:01.152Z,65.26
2023-10-22T07:34:04.755Z,65.21
2023-10-22T07:39:09.208Z,64.37
2023-10-22T07:44:14.925Z,64.19
2023-10-22T07:49:18.499Z,63.94
2023-10-22T07:54:22.130Z,63.42
2023-10-22T07:59:27.353Z,64.04
2023-10-22T08:04:31.015Z,63.20
2023-10-22T08:09:34.703Z,63.37
2023-10-22T08:14:39.669Z,62.59
2023-10-22T08:19:43.169Z,62.40
2023-10-22T08:24:49.845Z,62.55
2023-10-22T08:29:56.329Z,61.73
2023-10-22T08:35:00.301Z,61.31
2023-10-22T08:40:07.345Z,61.20
2023-10-22T08:45:12.723Z,61.05
2023-10-22T08:50:19.664Z,61.61
2023-10-22T08:55:24.340Z,61.23
2023-10-22T09:00:32.413Z,61.03
2023-10-22T09:05:36.156Z,61.05
2023-10-22T09:10:40.051Z,60.49
2023-10-22T09:15:45.935Z,59.88
2023-10-22T09:20:50.377Z,60.55
2023-10-22T09:25:55.545Z,60.06
2023-10-22T09:31:02.084Z,58.84
2023-10-22T09:36:07.853Z,60.39
2023-10-22T09:41:13.717Z,59.96
2023-10-22T09:46:20.530Z,60.07
2023-10-22T09:51:25.656Z,58.89
2023-10-22T09:56:31.694Z,59.95
2023-10-22T10:01:37.741Z,60.39
2023-10-22T10:06:42.285Z,59.77
2023-10-22T10:11:45.981Z,60.17
2023-10-22T10:17:02.427Z,59.52
2023-10-22T10:22:06.499Z,60.06
2023-10-22T10:27:26.988Z,59.78
2023-10-22T10:32:31.947Z,59.96
2023-10-22T10:37:35.907Z,59.89
2023-10-22T10:42:51.428Z,59.64
2023-10-22T10:47:56.408Z,59.39
2023-10-22T10:53:04.334Z,59.87
2023-10-22T10:58:07.775Z,59.42
2023-10-22T11:03:23.450Z,59.63
2023-10-22T11:08:28.979Z,59.78
2023-10-22T11:13:33.581Z,60.07
2023-10-22T11:18:54.751Z,60.38
2023-10-22T11:23:58.584Z,60.03
2023-10-22T11:29:02.436Z,59.82
2023-10-22T11:34:18.222Z,60.10
2023-10-22T11:39:38.385Z,59.16
2023-10-22T11:44:48.012Z,59.82
2023-10-22T11:49:53.112Z,60.78
2023-10-22T11:54:57.258Z,59.32
2023-10-22T12:00:01.173Z,60.47
2023-10-22T12:05:06.709Z,59.40
2023-10-22T12:10:11.562Z,60.16
2023-10-22T12:15:15.386Z,60.42
2023-10-22T12:20:21.360Z,60.12
2023-10-22T12:25:25.128Z,60.00
2023-10-22T12:30:29.180Z,60.55
2023-10-22T12:35:34.197Z,60.41
2023-10-22T12:40:37.945Z,60.07
2023-10-22T12:45:42.628Z,59.96
2023-10-22T12:50:51.043Z,60.88
2023-10-22T12:55:55.509Z,61.59
2023-10-22T13:01:01.153Z,60.41
2023-10-22T13:06:07.424Z,61.09
2023-10-22T13:11:11.350Z,60.90
2023-10-22T13:16:15.069Z,61.10
2023-10-22T13:21:20.216Z,61.44
2023-10-22T13:26:24.543Z,60.94
2023-10-22T13:31:28.143Z,61.76
2023-10-22T13:36:33.265Z,61.21
2023-10-22T13:41:36.988Z,61.98
2023-10-22T13:46:41.270Z,61.31
2023-10-22T13:51:47.442Z,61.25
2023-10-22T13:56:52.169Z,62.23
2023-10-22T14:01:55.796Z,62.27
2023-10-22T14:07:00.873Z,61.52
2023-10-22T14:12:04.576Z,61.82
2023-10-22T14:17:08.470Z,62.44
2023-10-22T14:22:13.318Z,62.20
2023-10-22T14:27:16.426Z,62.83
2023-10-22T14:32:20.419Z,62.39
2023-10-22T14:37:25.706Z,62.12
2023-10-22T14:42:29.504Z,62.51
2023-10-22T14:47:33.075Z,61.41
2023-10-22T14:52:38.154Z,62.47
2023-10-22T14:57:41.874Z,62.86
2023-10-22T15:02:48.080Z,63.23
2023-10-22T15:07:53.385Z,63.01
2023-10-22T15:12:56.950Z,62.81
2023-10-22T15:18:00.638Z,62.84
2023-10-22T15:23:05.771Z,62.97
2023-10-22T15:28:09.330Z,63.00
2023-10-22T15:33:13.140Z,63.08
2023-10-22T15:38:18.681Z,62.42
2023-10-22T15:43:22.367Z,62.80
2023-10-22T15:48:27.676Z,63.69
2023-10-22T15:53:32.748Z,63.43
2023-10-22T15:58:36.211Z,63.75
2023-10-22T16:03:40.613Z,63.02
2023-10-22T16:08:45.941Z,63.52
2023-10-22T16:13:49.552Z,62.90
2023-10-22T16:18:53.596Z,63.86
2023-10-22T16:23:58.443Z,63.39
2023-10-22T16:29:01.958Z,64.30
2023-10-22T16:34:05.635Z,64.11
2023-10-22T16:39:10.954Z,62.78
2023-10-22T16:44:14.616Z,62.97
2023-10-22T16:49:18.211Z,63.87
2023-10-22T16:54:24.412Z,63.48
2023-10-22T16:59:28.184Z,63.60
2023-10-22T17:04:31.857Z,64.09
2023-10-22T17:09:37.060Z,63.48
2023-10-22T17:14:52.048Z,64.26
2023-10-22T17:19:57.835Z,63.82
2023-10-22T17:25:03.071Z,64.38
2023-10-22T17:30:09.175Z,65.15
2023-10-22T17:35:12.962Z,65.29
2023-10-22T17:40:18.103Z,64.30
2023-10-22T17:45:22.193Z,64.46
2023-10-22T17:50:25.816Z,64.26
2023-10-22T17:55:30.842Z,64.17
2023-10-22T18:00:34.567Z,64.70
2023-10-22T18:05:38.664Z,64.11
2023-10-22T18:10:53.723Z,64.72
2023-10-22T18:15:57.408Z,64.65
2023-10-22T18:21:05.068Z,65.74
2023-10-22T18:26:11.709Z,65.34
2023-10-22T18:31:15.386Z,64.85
2023-10-22T18:36:19.160Z,65.28
2023-10-22T18:41:24.518Z,65.03
2023-10-22T18:46:31.570Z,64.92
2023-10-22T18:51:36.007Z,65.03
2023-10-22T18:56:41.805Z,65.35
2023-10-22T19:01:47.315Z,65.36
2023-10-22T19:06:50.749Z,64.60
2023-10-22T19:11:55.571Z,64.85
2023-10-22T19:16:59.533Z,65.35
2023-10-22T19:22:03.179Z,64.86
2023-10-22T19:27:08.221Z,65.23
2023-10-22T19:32:11.822Z,65.26
2023-10-22T19:37:15.326Z,65.46
2023-10-22T19:42:20.793Z,66.53
2023-10-22T19:47:24.303Z,65.79
2023-10-22T19:52:40.541Z,65.99
2023-10-22T19:57:46.966Z,65.52
2023-10-22T20:02:50.569Z,65.47
2023-10-22T20:07:54.050Z,65.83
2023-10-22T20:12:59.160Z,66.27
2023-10-22T20:18:10.790Z,65.74
2023-10-22T20:23:14.353Z,65.52
2023-10-22T20:28:19.194Z,66.12
2023-10-22T20:33:23.467Z,66.58
2023-10-22T20:38:27.209Z,65.12
2023-10-22T20:43:32.042Z,65.40
2023-10-22T20:48:37.109Z,65.02
2023-10-22T20:53:42.217Z,65.89
2023-10-22T20:58:48.609Z,65.80
2023-10-22T21:03:52.553Z,65.77
2023-10-22T21:08:56.210Z,65.54
2023-10-22T21:14:01.243Z,65.65
2023-10-22T21:19:05.011Z,65.08
2023-10-22T21:24:09.822Z,65.35
2023-10-22T21:29:14.963Z,66.49
2023-10-22T21:34:18.466Z,66.06
2023-10-22T21:39:22.717Z,65.45
2023-10-22T21:44:27.530Z,65.26
2023-10-22T21:49:31.227Z,65.38
2023-10-22T21:54:34.977Z,65.89
2023-10-22T21:59:39.982Z,65.97
2023-10-22T22:04:43.208Z,65.69
2023-10-22T22:09:46.550Z,66.03
2023-10-22T22:14:51.476Z,65.43
2023-10-22T22:19:55.470Z,65.47
2023-10-22T22:24:58.916Z,65.05
2023-10-22T22:30:03.947Z,65.01
2023-10-22T22:35:09.869Z,66.11
2023-10-22T22:40:13.865Z,67.07
2023-10-22T22:45:19.099Z,66.27
2023-10-22T22:50:22.832Z,66.32
2023-10-22T22:55:26.431Z,66.56
2023-10-22T23:00:31.685Z,67.52
2023-10-22T23:05:35.295Z,66.76
2023-10-22T23:10:39.226Z,66.07
2023-10-22T23:15:44.997Z,66.61
2023-10-22T23:20:48.548Z,66.20
2023-10-22T23:25:52.606Z,66.31
2023-10-22T23:30:57.873Z,66.16
2023-10-22T23:36:08.676Z,66.33
2023-10-22T23:41:12.059Z,66.43
2023-10-22T23:46:17.210Z,66.75
2023-10-22T23:51:21.574Z,66.47
2023-10-22T23:56:25.300Z,65.90
